Duquoin, Kansas
Current Conditions -  °F | °C
As of 2:53 PM on Thursday 27 Nov 2014 (Local Time) from KICT Reporting Station
Few Clouds Few Clouds  
Wind Chill: 38°   Ceiling: Unl
Heat Index: 46°   Visibility: 10mi
Dew Point: 15°   Wind: 21mph
Humidity: 29%   Direction: 170°S
Pressure: 30.33"   Gusts: 24mph
Location:  37.3085°N, 97.9911°W
Report Text: KICT 272053Z 17018G21KT 10SM FEW250 08/M09 A3033 RMK AO2 SLP279 T00781094 56047
Loading
Personal Weather Stations






























Interactive Weather Map New forecast layout! Learn more

10-Day Weather Forecast

Advertisements
Track Severe Weather on mobile